Terminal Aerodrome Forecast
Issued by NWS Twin Cities, MN

Home | Current Version | Previous Version | Text Only | Print | Product List | Glossary Off
Versions: 1 2 3 4 5 6 7 8 9 10 11 12 13

452
FTUS43 KMPX 211120
TAFSTC
TAF
KSTC 211120Z 2112/2212 00000KT P6SM SCT100 BKN250
     FM211400 10004KT P6SM SCT050 BKN200
     FM212100 33005KT P6SM VCSH BKN050 OVC250
     FM220100 32004KT P6SM SCT100 BKN250
     FM220500 33003KT P6SM SKC=

USA.gov is the U.S. government's official web portal to all federal, state and local government web resources and services.